createdAt,value
2019-01-10T00:01:05.329Z,2.06
2019-01-10T00:06:13.009Z,2.27
2019-01-10T00:11:20.645Z,2.48
2019-01-10T00:16:28.337Z,2.54
2019-01-10T00:21:35.973Z,2.46
2019-01-10T00:26:43.653Z,2.31
2019-01-10T00:31:51.309Z,2.39
2019-01-10T00:36:59.025Z,2.32
2019-01-10T00:42:06.645Z,2.16
2019-01-10T00:47:14.297Z,2.50
2019-01-10T00:52:21.916Z,2.70
2019-01-10T00:57:29.637Z,2.41
2019-01-10T01:02:37.262Z,2.22
2019-01-10T01:07:45.164Z,2.41
2019-01-10T01:12:58.340Z,2.33
2019-01-10T01:17:59.983Z,2.49
2019-01-10T01:23:07.596Z,2.54
2019-01-10T01:28:15.271Z,2.24
2019-01-10T01:33:22.911Z,2.41
2019-01-10T01:38:30.541Z,3.00
2019-01-10T01:43:38.184Z,2.41
2019-01-10T01:48:45.812Z,2.55
2019-01-10T01:53:53.449Z,2.33
2019-01-10T01:59:01.084Z,2.91
2019-01-10T02:04:08.801Z,2.60
2019-01-10T02:09:16.440Z,3.08
2019-01-10T02:14:24.072Z,2.48
2019-01-10T02:19:31.717Z,2.36
2019-01-10T02:24:39.345Z,2.31
2019-01-10T02:29:47.016Z,2.76
2019-01-10T02:34:54.688Z,2.14
2019-01-10T02:40:02.317Z,2.65
2019-01-10T02:45:09.967Z,2.45
2019-01-10T02:50:17.587Z,2.56
2019-01-10T02:55:25.239Z,2.67
2019-01-10T03:00:32.844Z,3.32
2019-01-10T03:05:40.445Z,3.45
2019-01-10T03:10:48.042Z,2.45
2019-01-10T03:15:55.700Z,2.52
2019-01-10T03:21:03.317Z,3.04
2019-01-10T03:26:11.013Z,2.79
2019-01-10T03:31:18.658Z,2.80
2019-01-10T03:36:26.329Z,2.39
2019-01-10T03:41:33.921Z,2.49
2019-01-10T03:46:41.556Z,2.49
2019-01-10T03:51:49.157Z,2.33
2019-01-10T03:56:56.834Z,2.59
2019-01-10T04:02:04.452Z,2.52
2019-01-10T04:07:12.088Z,2.55
2019-01-10T04:12:19.697Z,2.36
2019-01-10T04:17:27.352Z,2.60
2019-01-10T04:22:35.000Z,2.81
2019-01-10T04:27:42.669Z,2.41
2019-01-10T04:32:50.302Z,2.54
2019-01-10T04:37:57.945Z,2.49
2019-01-10T04:43:05.588Z,2.86
2019-01-10T04:48:13.264Z,3.37
2019-01-10T04:53:20.904Z,2.55
2019-01-10T04:58:28.553Z,2.55
2019-01-10T05:03:36.205Z,2.89
2019-01-10T05:08:43.868Z,3.27
2019-01-10T05:13:51.520Z,2.75
2019-01-10T05:18:59.208Z,2.79
2019-01-10T05:24:06.849Z,2.67
2019-01-10T05:29:14.531Z,2.74
2019-01-10T05:34:22.161Z,3.63
2019-01-10T05:39:29.814Z,3.02
2019-01-10T05:44:37.424Z,3.25
2019-01-10T05:49:59.614Z,4.40
2019-01-10T05:55:07.244Z,5.37
2019-01-10T06:00:14.873Z,5.03
2019-01-10T06:05:22.503Z,4.97
2019-01-10T06:10:30.141Z,4.29
2019-01-10T06:15:37.800Z,4.82
2019-01-10T06:20:45.433Z,5.23
2019-01-10T06:25:53.061Z,5.79
2019-01-10T06:31:00.700Z,6.83
2019-01-10T06:36:08.348Z,5.46
2019-01-10T06:41:17.039Z,5.03
2019-01-10T06:46:23.204Z,6.79
2019-01-10T06:51:30.820Z,5.49
2019-01-10T06:56:38.649Z,7.21
2019-01-10T07:01:46.269Z,10.13
2019-01-10T07:06:54.080Z,8.88
2019-01-10T07:12:01.693Z,7.87
2019-01-10T07:17:09.369Z,7.24
2019-01-10T07:22:16.986Z,4.95
2019-01-10T07:27:24.636Z,5.48
2019-01-10T07:32:32.223Z,6.46
2019-01-10T07:37:39.860Z,5.27
2019-01-10T07:42:47.513Z,6.80
2019-01-10T07:47:55.224Z,6.33
2019-01-10T07:53:02.862Z,6.38
2019-01-10T07:58:10.537Z,7.18
2019-01-10T08:03:18.176Z,7.90
2019-01-10T08:08:25.824Z,7.03
2019-01-10T08:13:33.465Z,6.54
2019-01-10T08:18:41.145Z,7.78
2019-01-10T08:23:48.764Z,7.20
2019-01-10T08:28:56.437Z,6.83
2019-01-10T08:34:04.065Z,6.75
2019-01-10T08:39:11.862Z,7.18
2019-01-10T08:44:19.533Z,7.46
2019-01-10T08:49:27.256Z,6.98
2019-01-10T08:54:34.829Z,7.62
2019-01-10T08:59:42.498Z,7.79
2019-01-10T09:04:50.112Z,8.87
2019-01-10T09:09:57.795Z,8.66
2019-01-10T09:15:05.522Z,6.79
2019-01-10T09:20:13.200Z,7.24
2019-01-10T09:25:20.812Z,7.19
2019-01-10T09:30:28.544Z,7.02
2019-01-10T09:35:35.995Z,6.97
2019-01-10T09:40:43.704Z,7.65
2019-01-10T09:45:51.320Z,8.13
2019-01-10T09:50:59.001Z,8.64
2019-01-10T09:56:06.607Z,6.65
2019-01-10T10:01:14.295Z,6.67
2019-01-10T10:06:21.929Z,6.78
2019-01-10T10:11:34.205Z,6.35
2019-01-10T10:16:36.804Z,7.36
2019-01-10T10:21:44.484Z,7.04
2019-01-10T10:26:52.153Z,5.58
2019-01-10T10:31:59.874Z,6.12
2019-01-10T10:37:07.508Z,5.19
2019-01-10T10:42:15.169Z,6.35
2019-01-10T10:47:22.829Z,6.19
2019-01-10T10:52:30.540Z,6.02
2019-01-10T10:57:38.172Z,5.93
2019-01-10T11:02:45.823Z,5.89
2019-01-10T11:07:53.441Z,5.33
2019-01-10T11:13:01.218Z,5.76
2019-01-10T11:18:08.845Z,6.02
2019-01-10T11:23:16.505Z,9.77
2019-01-10T11:28:24.156Z,12.36
2019-01-10T11:33:31.786Z,7.44
2019-01-10T11:38:39.441Z,6.58
2019-01-10T11:43:47.155Z,5.88
2019-01-10T11:48:54.853Z,6.05
2019-01-10T11:54:02.875Z,4.93
2019-01-10T11:59:10.544Z,4.90
2019-01-10T12:04:18.227Z,4.36
2019-01-10T12:09:25.840Z,4.50
2019-01-10T12:14:33.497Z,4.32
2019-01-10T12:19:41.148Z,4.18
2019-01-10T12:24:48.879Z,3.78
2019-01-10T12:29:56.522Z,3.26
2019-01-10T12:35:04.157Z,4.03
2019-01-10T12:40:11.809Z,3.70
2019-01-10T12:45:19.480Z,3.47
2019-01-10T12:50:27.450Z,3.67
2019-01-10T12:55:37.140Z,4.23
2019-01-10T13:00:44.777Z,3.81
2019-01-10T13:05:52.589Z,3.79
2019-01-10T13:11:00.280Z,3.69
2019-01-10T13:16:07.954Z,4.24
2019-01-10T13:21:15.705Z,3.41
2019-01-10T13:26:23.346Z,3.38
2019-01-10T13:31:31.080Z,3.35
2019-01-10T13:36:38.734Z,3.51
2019-01-10T13:41:46.359Z,3.71
2019-01-10T13:46:55.805Z,3.96
2019-01-10T13:52:01.200Z,2.95
2019-01-10T13:57:08.905Z,3.36
2019-01-10T14:02:16.521Z,3.93
2019-01-10T14:07:24.180Z,3.34
2019-01-10T14:12:31.828Z,3.38
2019-01-10T14:17:39.573Z,3.16
2019-01-10T14:22:47.229Z,2.63
2019-01-10T14:27:59.527Z,2.88
2019-01-10T14:33:02.093Z,2.92
2019-01-10T14:38:09.728Z,3.02
2019-01-10T14:43:17.448Z,2.45
2019-01-10T14:48:25.065Z,3.15
2019-01-10T14:53:32.910Z,2.65
2019-01-10T14:58:40.355Z,2.87
2019-01-10T15:03:48.042Z,3.31
2019-01-10T15:08:55.673Z,2.91
2019-01-10T15:14:03.416Z,2.73
2019-01-10T15:19:11.076Z,3.14
2019-01-10T15:24:18.757Z,3.15
2019-01-10T15:29:26.396Z,3.40
2019-01-10T15:34:34.104Z,2.98
2019-01-10T15:39:41.738Z,3.44
2019-01-10T15:44:49.452Z,3.32
2019-01-10T15:49:57.088Z,3.28
2019-01-10T15:55:04.721Z,3.22
2019-01-10T16:00:12.397Z,3.08
2019-01-10T16:05:20.021Z,3.43
2019-01-10T16:10:27.682Z,3.79
2019-01-10T16:15:35.345Z,3.29
2019-01-10T16:20:43.060Z,3.18
2019-01-10T16:25:50.702Z,2.38
2019-01-10T16:30:58.343Z,1.82
2019-01-10T16:36:05.996Z,2.15
2019-01-10T16:41:13.744Z,1.79
2019-01-10T16:46:21.372Z,1.72
2019-01-10T16:51:29.119Z,1.75
2019-01-10T16:56:36.754Z,1.81
2019-01-10T17:01:44.511Z,1.68
2019-01-10T17:06:52.180Z,2.01
2019-01-10T17:11:59.880Z,2.09
2019-01-10T17:17:07.535Z,1.97
2019-01-10T17:22:15.202Z,1.94
2019-01-10T17:27:22.850Z,1.81
2019-01-10T17:32:30.589Z,2.03
2019-01-10T17:37:38.225Z,2.37
2019-01-10T17:42:45.935Z,4.84
2019-01-10T17:47:53.561Z,3.04
2019-01-10T17:53:01.243Z,2.77
2019-01-10T17:58:08.869Z,2.66
2019-01-10T18:03:16.570Z,2.01
2019-01-10T18:08:24.185Z,2.02
2019-01-10T18:13:31.824Z,2.88
2019-01-10T18:18:39.504Z,3.10
2019-01-10T18:23:47.132Z,3.29
2019-01-10T18:28:54.756Z,2.57
2019-01-10T18:34:02.390Z,2.89
2019-01-10T18:39:10.072Z,3.74
2019-01-10T18:44:17.706Z,3.07
2019-01-10T18:49:25.476Z,3.49
2019-01-10T18:54:33.097Z,3.47
2019-01-10T18:59:40.777Z,4.71
2019-01-10T19:04:48.384Z,4.58
2019-01-10T19:09:56.037Z,5.13
2019-01-10T19:15:03.688Z,4.57
2019-01-10T19:20:11.304Z,4.52
2019-01-10T19:25:18.937Z,4.46
2019-01-10T19:30:26.576Z,4.66
2019-01-10T19:35:34.208Z,4.95
2019-01-10T19:40:41.878Z,4.87
2019-01-10T19:45:49.585Z,6.41
2019-01-10T19:50:57.226Z,6.11
2019-01-10T19:56:04.845Z,4.79
2019-01-10T20:01:12.529Z,5.56
2019-01-10T20:06:20.168Z,6.06
2019-01-10T20:11:27.796Z,5.11
2019-01-10T20:16:35.492Z,4.91
2019-01-10T20:21:43.113Z,4.94
2019-01-10T20:26:50.817Z,4.87
2019-01-10T20:31:58.488Z,5.07
2019-01-10T20:37:06.208Z,5.42
2019-01-10T20:42:13.845Z,5.43
2019-01-10T20:47:21.569Z,6.47
2019-01-10T20:52:29.200Z,6.03
2019-01-10T20:57:36.846Z,5.77
2019-01-10T21:02:44.553Z,6.14
2019-01-10T21:07:52.177Z,6.46
2019-01-10T21:12:59.885Z,6.68
2019-01-10T21:18:07.521Z,6.97
2019-01-10T21:23:15.215Z,6.99
2019-01-10T21:28:22.861Z,7.29
2019-01-10T21:33:30.575Z,7.28
2019-01-10T21:38:38.209Z,7.94
2019-01-10T21:43:45.909Z,9.88
2019-01-10T21:48:53.540Z,8.50
2019-01-10T21:54:01.240Z,11.31
2019-01-10T21:59:08.867Z,12.40
2019-01-10T22:04:16.576Z,13.39
2019-01-10T22:09:24.217Z,14.21
2019-01-10T22:14:33.131Z,12.48
2019-01-10T22:19:39.109Z,13.38
2019-01-10T22:24:46.741Z,13.79
2019-01-10T22:29:54.392Z,15.31
2019-01-10T22:35:02.000Z,15.23
2019-01-10T22:40:09.752Z,16.43
2019-01-10T22:45:17.392Z,18.40
2019-01-10T22:50:25.116Z,24.25
2019-01-10T22:55:32.744Z,23.75
2019-01-10T23:00:40.397Z,18.80
2019-01-10T23:05:48.028Z,19.83
2019-01-10T23:10:55.668Z,21.85
2019-01-10T23:16:03.316Z,27.42
2019-01-10T23:21:11.016Z,21.51
2019-01-10T23:26:18.629Z,22.68
2019-01-10T23:31:26.248Z,23.64
2019-01-10T23:36:33.893Z,24.61
2019-01-10T23:41:41.578Z,25.64
2019-01-10T23:46:49.217Z,25.04
2019-01-10T23:51:56.892Z,25.90
2019-01-10T23:57:04.537Z,25.35
